createdAt,value
2018-05-12T00:02:07.405Z,15.10
2018-05-12T00:04:33.707Z,15.10
2018-05-12T00:06:59.914Z,15.00
2018-05-12T00:09:26.158Z,15.00
2018-05-12T00:11:52.409Z,15.00
2018-05-12T00:14:18.621Z,15.00
2018-05-12T00:16:45.563Z,15.00
2018-05-12T00:19:11.773Z,14.90
2018-05-12T00:21:37.993Z,14.90
2018-05-12T00:24:04.200Z,14.90
2018-05-12T00:26:30.444Z,14.90
2018-05-12T00:28:56.619Z,14.90
2018-05-12T00:31:22.883Z,14.80
2018-05-12T00:33:49.159Z,14.80
2018-05-12T00:36:16.139Z,14.80
2018-05-12T00:38:42.367Z,14.80
2018-05-12T00:41:08.592Z,14.70
2018-05-12T00:43:34.852Z,14.70
2018-05-12T00:46:01.091Z,14.70
2018-05-12T00:48:27.306Z,14.70
2018-05-12T00:50:53.556Z,14.60
2018-05-12T00:53:19.801Z,14.60
2018-05-12T00:55:46.037Z,14.60
2018-05-12T00:58:12.973Z,14.60
2018-05-12T01:00:39.983Z,14.60
2018-05-12T01:03:06.216Z,14.50
2018-05-12T01:05:32.406Z,14.60
2018-05-12T01:07:58.636Z,14.50
2018-05-12T01:10:24.920Z,14.10
2018-05-12T01:12:51.139Z,14.20
2018-05-12T01:15:17.343Z,14.20
2018-05-12T01:17:43.576Z,14.20
2018-05-12T01:20:09.836Z,14.30
2018-05-12T01:22:36.118Z,14.20
2018-05-12T01:25:02.388Z,14.20
2018-05-12T01:27:28.629Z,14.20
2018-05-12T01:29:54.880Z,14.30
2018-05-12T01:32:21.108Z,14.30
2018-05-12T01:34:48.053Z,14.30
2018-05-12T01:37:14.294Z,14.30
2018-05-12T01:39:40.517Z,14.30
2018-05-12T01:42:07.500Z,14.30
2018-05-12T01:44:33.709Z,14.30
2018-05-12T01:46:59.988Z,14.30
2018-05-12T01:49:26.199Z,14.30
2018-05-12T01:51:52.451Z,14.30
2018-05-12T01:54:19.465Z,14.30
2018-05-12T01:56:45.674Z,14.30
2018-05-12T01:59:11.962Z,14.30
2018-05-12T02:01:38.912Z,14.30
2018-05-12T02:04:07.188Z,14.30
2018-05-12T02:06:33.399Z,14.30
2018-05-12T02:09:00.380Z,14.30
2018-05-12T02:11:26.589Z,14.30
2018-05-12T02:13:53.621Z,14.30
2018-05-12T02:16:20.628Z,14.30
2018-05-12T02:18:46.863Z,14.30
2018-05-12T02:21:13.126Z,14.30
2018-05-12T02:23:39.371Z,14.30
2018-05-12T02:26:05.592Z,14.30
2018-05-12T02:28:32.571Z,14.30
2018-05-12T02:30:58.825Z,14.30
2018-05-12T02:33:25.064Z,14.30
2018-05-12T02:35:51.294Z,14.30
2018-05-12T02:38:17.483Z,14.20
2018-05-12T02:40:43.722Z,14.20
2018-05-12T02:43:09.960Z,14.20
2018-05-12T02:45:36.259Z,14.20
2018-05-12T02:48:02.539Z,14.20
2018-05-12T02:50:28.785Z,14.10
2018-05-12T02:52:55.858Z,14.10
2018-05-12T02:55:22.116Z,14.10
2018-05-12T02:57:48.402Z,14.20
2018-05-12T03:00:15.336Z,14.10
2018-05-12T03:02:41.603Z,14.10
2018-05-12T03:05:07.813Z,14.10
2018-05-12T03:07:34.055Z,14.10
2018-05-12T03:10:00.295Z,14.10
2018-05-12T03:12:26.548Z,14.10
2018-05-12T03:14:52.793Z,14.00
2018-05-12T03:17:18.980Z,14.00
2018-05-12T03:19:45.207Z,14.00
2018-05-12T03:22:11.424Z,14.10
2018-05-12T03:24:37.690Z,14.10
2018-05-12T03:27:03.931Z,14.10
2018-05-12T03:29:30.211Z,14.10
2018-05-12T03:31:56.437Z,14.10
2018-05-12T03:34:22.642Z,14.00
2018-05-12T03:36:49.624Z,14.00
2018-05-12T03:39:15.848Z,14.00
2018-05-12T03:41:42.092Z,14.00
2018-05-12T03:44:08.343Z,14.00
2018-05-12T03:46:34.560Z,13.90
2018-05-12T03:49:00.885Z,13.90
2018-05-12T03:51:27.170Z,13.90
2018-05-12T03:53:53.413Z,13.90
2018-05-12T03:56:19.659Z,13.90
2018-05-12T03:58:45.849Z,13.80
2018-05-12T04:01:12.828Z,13.80
2018-05-12T04:03:39.038Z,13.70
2018-05-12T04:06:17.376Z,13.80
2018-05-12T04:08:56.613Z,13.70
2018-05-12T04:11:35.063Z,13.80
2018-05-12T04:14:02.048Z,13.70
2018-05-12T04:16:28.279Z,13.60
2018-05-12T04:18:54.535Z,13.60
2018-05-12T04:21:20.756Z,13.60
2018-05-12T04:23:46.990Z,13.60
2018-05-12T04:26:13.233Z,13.70
2018-05-12T04:28:39.486Z,13.70
2018-05-12T04:31:06.454Z,13.70
2018-05-12T04:33:32.677Z,13.70
2018-05-12T04:35:58.872Z,13.70
2018-05-12T04:38:25.080Z,13.70
2018-05-12T04:40:51.321Z,13.60
2018-05-12T04:43:17.549Z,13.60
2018-05-12T04:45:43.752Z,13.50
2018-05-12T04:48:09.978Z,13.30
2018-05-12T04:50:36.214Z,13.30
2018-05-12T04:53:02.438Z,13.40
2018-05-12T04:55:28.700Z,13.40
2018-05-12T04:57:54.932Z,13.50
2018-05-12T05:00:21.151Z,13.50
2018-05-12T05:02:47.335Z,13.50
2018-05-12T05:05:13.593Z,13.50
2018-05-12T05:07:39.799Z,13.50
2018-05-12T05:10:06.016Z,13.60
2018-05-12T05:12:32.293Z,13.60
2018-05-12T05:14:58.532Z,13.60
2018-05-12T05:17:24.753Z,13.60
2018-05-12T05:19:51.059Z,13.70
2018-05-12T05:22:17.296Z,13.70
2018-05-12T05:24:43.486Z,13.70
2018-05-12T05:27:09.740Z,13.70
2018-05-12T05:29:35.996Z,13.70
2018-05-12T05:32:02.240Z,13.70
2018-05-12T05:34:28.502Z,13.80
2018-05-12T05:36:54.737Z,13.80
2018-05-12T05:39:20.918Z,13.80
2018-05-12T05:41:47.879Z,13.90
2018-05-12T05:44:14.105Z,13.80
2018-05-12T05:46:40.334Z,13.90
2018-05-12T05:49:06.563Z,13.90
2018-05-12T05:51:32.774Z,14.00
2018-05-12T05:53:59.731Z,14.00
2018-05-12T05:56:26.737Z,14.00
2018-05-12T05:58:52.960Z,14.00
2018-05-12T06:01:19.145Z,14.10
2018-05-12T06:03:45.366Z,14.10
2018-05-12T06:06:11.573Z,14.10
2018-05-12T06:08:37.735Z,14.20
2018-05-12T06:11:03.931Z,14.20
2018-05-12T06:13:30.887Z,14.20
2018-05-12T06:15:57.117Z,14.20
2018-05-12T06:18:24.112Z,14.20
2018-05-12T06:23:42.176Z,14.20
2018-05-12T06:26:08.416Z,14.20
2018-05-12T06:28:34.674Z,14.30
2018-05-12T06:31:01.667Z,14.30
2018-05-12T06:33:28.002Z,14.30
2018-05-12T06:35:54.222Z,14.40
2018-05-12T06:38:20.415Z,14.50
2018-05-12T06:40:46.644Z,14.40
2018-05-12T06:43:12.855Z,14.40
2018-05-12T06:45:39.092Z,14.50
2018-05-12T06:48:05.315Z,14.50
2018-05-12T06:50:32.312Z,14.60
2018-05-12T06:52:58.497Z,14.50
2018-05-12T06:55:24.737Z,14.60
2018-05-12T06:57:50.921Z,14.70
2018-05-12T07:00:17.190Z,14.80
2018-05-12T07:02:43.455Z,14.80
2018-05-12T07:05:09.684Z,14.90
2018-05-12T07:07:35.887Z,14.90
2018-05-12T07:10:02.221Z,14.90
2018-05-12T07:12:28.472Z,15.00
2018-05-12T07:14:54.700Z,15.00
2018-05-12T07:17:20.923Z,15.10
2018-05-12T07:19:47.184Z,15.20
2018-05-12T07:22:14.191Z,15.30
2018-05-12T07:24:40.408Z,15.30
2018-05-12T07:27:06.624Z,15.30
2018-05-12T07:29:32.853Z,15.40
2018-05-12T07:31:59.073Z,15.50
2018-05-12T07:34:25.297Z,15.50
2018-05-12T07:36:51.489Z,15.50
2018-05-12T07:39:17.720Z,15.60
2018-05-12T07:41:43.985Z,15.70
2018-05-12T07:44:10.220Z,15.70
2018-05-12T07:46:36.440Z,15.70
2018-05-12T07:49:02.648Z,15.80
2018-05-12T07:51:29.630Z,15.80
2018-05-12T07:53:55.898Z,15.80
2018-05-12T07:56:22.105Z,15.90
2018-05-12T07:58:48.337Z,16.00
2018-05-12T08:01:14.569Z,16.10
2018-05-12T08:03:40.782Z,16.20
2018-05-12T08:06:07.034Z,16.30
2018-05-12T08:08:33.258Z,16.40
2018-05-12T08:10:59.461Z,16.50
2018-05-12T08:13:25.652Z,16.60
2018-05-12T08:15:52.627Z,16.60
2018-05-12T08:18:18.861Z,16.60
2018-05-12T08:20:45.095Z,16.80
2018-05-12T08:23:11.389Z,16.90
2018-05-12T08:25:38.326Z,17.00
2018-05-12T08:28:05.307Z,17.10
2018-05-12T08:30:31.566Z,17.00
2018-05-12T08:32:57.803Z,17.20
2018-05-12T08:35:24.013Z,17.30
2018-05-12T08:37:50.221Z,17.40
2018-05-12T08:40:16.426Z,17.40
2018-05-12T08:42:42.666Z,17.40
2018-05-12T08:45:08.919Z,17.50
2018-05-12T08:47:35.143Z,17.50
2018-05-12T08:50:01.348Z,17.60
2018-05-12T08:52:27.553Z,17.60
2018-05-12T08:54:54.553Z,17.70
2018-05-12T08:57:20.762Z,17.60
2018-05-12T08:59:47.025Z,17.80
2018-05-12T09:02:13.247Z,17.90
2018-05-12T09:04:39.455Z,18.00
2018-05-12T09:07:05.761Z,18.10
2018-05-12T09:09:31.944Z,18.20
2018-05-12T09:11:58.150Z,18.20
2018-05-12T09:14:24.358Z,18.20
2018-05-12T09:16:50.580Z,18.30
2018-05-12T09:19:16.833Z,18.30
2018-05-12T09:21:43.088Z,18.50
2018-05-12T09:24:10.066Z,18.50
2018-05-12T09:26:36.324Z,18.50
2018-05-12T09:29:02.546Z,18.60
2018-05-12T09:31:28.790Z,18.80
2018-05-12T09:33:55.039Z,18.80
2018-05-12T09:36:21.264Z,18.80
2018-05-12T09:38:47.472Z,18.90
2018-05-12T09:41:13.701Z,19.00
2018-05-12T09:43:39.942Z,19.20
2018-05-12T09:46:06.149Z,19.20
2018-05-12T09:48:32.383Z,19.30
2018-05-12T09:50:58.599Z,19.40
2018-05-12T09:53:24.867Z,19.30
2018-05-12T09:55:51.073Z,19.30
2018-05-12T09:58:17.337Z,19.30
2018-05-12T10:00:43.582Z,19.40
2018-05-12T10:03:10.527Z,19.50
2018-05-12T10:05:37.480Z,19.70
2018-05-12T10:08:03.719Z,19.70
2018-05-12T10:10:29.915Z,19.80
2018-05-12T10:12:56.949Z,19.90
2018-05-12T10:15:23.173Z,19.90
2018-05-12T10:17:49.864Z,20.10
2018-05-12T10:20:16.107Z,20.20
2018-05-12T10:22:42.325Z,20.20
2018-05-12T10:25:08.573Z,20.20
2018-05-12T10:27:34.875Z,20.30
2018-05-12T10:30:01.142Z,20.30
2018-05-12T10:32:27.374Z,20.40
2018-05-12T10:34:53.567Z,20.40
2018-05-12T10:37:19.806Z,20.40
2018-05-12T10:39:46.008Z,20.60
2018-05-12T10:42:12.196Z,20.60
2018-05-12T10:44:38.386Z,20.80
2018-05-12T10:47:04.648Z,20.80
2018-05-12T10:49:30.846Z,20.90
2018-05-12T10:51:57.075Z,21.00
2018-05-12T10:54:23.303Z,21.00
2018-05-12T10:56:49.542Z,21.10
2018-05-12T10:59:15.771Z,21.10
2018-05-12T11:01:42.057Z,21.10
2018-05-12T11:04:08.272Z,21.10
2018-05-12T11:06:35.233Z,21.20
2018-05-12T11:09:01.469Z,21.10
2018-05-12T11:11:27.722Z,21.20
2018-05-12T11:13:53.936Z,21.20
2018-05-12T11:16:20.222Z,21.30
2018-05-12T11:18:47.157Z,21.30
2018-05-12T11:21:13.453Z,21.30
2018-05-12T11:23:39.710Z,21.40
2018-05-12T11:26:06.027Z,21.50
2018-05-12T11:28:32.371Z,21.60
2018-05-12T11:30:59.463Z,21.80
2018-05-12T11:33:25.758Z,21.80
2018-05-12T11:35:52.694Z,21.80
2018-05-12T11:38:25.648Z,21.80
2018-05-12T11:40:52.746Z,21.80
2018-05-12T11:43:18.961Z,21.70
2018-05-12T11:45:45.980Z,22.00
2018-05-12T11:48:12.162Z,21.90
2018-05-12T11:50:38.407Z,22.00
2018-05-12T11:53:04.618Z,22.10
2018-05-12T11:55:30.860Z,22.10
2018-05-12T11:57:57.096Z,22.10
2018-05-12T12:00:23.379Z,22.00
2018-05-12T12:02:50.385Z,22.00
2018-05-12T12:05:16.624Z,22.00
2018-05-12T12:07:43.142Z,22.00
2018-05-12T12:10:10.181Z,22.20
2018-05-12T12:12:36.437Z,22.10
2018-05-12T12:15:02.645Z,22.30
2018-05-12T12:17:28.924Z,22.40
2018-05-12T12:19:55.960Z,22.40
2018-05-12T12:22:22.244Z,22.40
2018-05-12T12:24:48.455Z,22.40
2018-05-12T12:27:14.724Z,22.50
2018-05-12T12:29:40.931Z,22.60
2018-05-12T12:32:07.218Z,22.60
2018-05-12T12:34:34.194Z,22.60
2018-05-12T12:37:00.451Z,22.60
2018-05-12T12:39:26.719Z,22.60
2018-05-12T12:41:53.636Z,22.60
2018-05-12T12:44:19.811Z,22.60
2018-05-12T12:46:46.061Z,22.70
2018-05-12T12:49:12.324Z,22.70
2018-05-12T12:51:38.649Z,22.70
2018-05-12T12:54:04.863Z,22.80
2018-05-12T12:56:31.149Z,22.90
2018-05-12T12:58:57.369Z,22.90
2018-05-12T13:01:24.369Z,23.00
2018-05-12T13:03:50.576Z,22.90
2018-05-12T13:06:16.844Z,22.90
2018-05-12T13:08:43.083Z,23.00
2018-05-12T13:11:09.301Z,23.00
2018-05-12T13:13:35.581Z,23.00
2018-05-12T13:16:01.875Z,23.20
2018-05-12T13:18:28.056Z,23.20
2018-05-12T13:20:54.351Z,23.10
2018-05-12T13:23:20.598Z,23.20
2018-05-12T13:25:46.804Z,23.20
2018-05-12T13:28:13.049Z,23.30
2018-05-12T13:30:39.273Z,23.40
2018-05-12T13:33:05.510Z,23.40
2018-05-12T13:35:31.838Z,23.50
2018-05-12T13:37:58.024Z,23.50
2018-05-12T13:40:24.210Z,23.60
2018-05-12T13:42:50.491Z,23.50
2018-05-12T13:45:17.565Z,23.50
2018-05-12T13:47:43.787Z,23.50
2018-05-12T13:50:10.048Z,23.50
2018-05-12T13:52:36.291Z,23.50
2018-05-12T13:55:02.545Z,23.40
2018-05-12T13:57:28.911Z,23.40
2018-05-12T13:59:55.080Z,23.40
2018-05-12T14:02:21.327Z,23.50
2018-05-12T14:04:47.520Z,23.60
2018-05-12T14:07:13.776Z,23.60
2018-05-12T14:09:40.117Z,23.70
2018-05-12T14:12:07.090Z,23.70
2018-05-12T14:14:33.278Z,23.70
2018-05-12T14:16:59.505Z,23.70
2018-05-12T14:19:25.791Z,23.80
2018-05-12T14:21:52.011Z,23.70
2018-05-12T14:24:18.219Z,23.70
2018-05-12T14:26:44.466Z,23.70
2018-05-12T14:29:10.677Z,23.80
2018-05-12T14:31:37.680Z,23.80
2018-05-12T14:34:03.940Z,23.70
2018-05-12T14:36:31.395Z,23.80
2018-05-12T14:38:57.601Z,23.90
2018-05-12T14:41:23.843Z,23.90
2018-05-12T14:43:50.179Z,24.00
2018-05-12T14:46:16.401Z,24.00
2018-05-12T14:48:42.660Z,24.00
2018-05-12T14:51:08.896Z,24.00
2018-05-12T14:53:35.116Z,24.00
2018-05-12T14:56:01.420Z,24.10
2018-05-12T14:58:28.474Z,24.20
2018-05-12T15:00:55.668Z,24.20
2018-05-12T15:03:22.062Z,24.20
2018-05-12T15:05:48.430Z,24.20
2018-05-12T15:08:14.665Z,24.20
2018-05-12T15:10:40.882Z,24.20
2018-05-12T15:13:07.075Z,24.20
2018-05-12T15:15:34.056Z,24.20
2018-05-12T15:18:00.259Z,24.20
2018-05-12T15:20:26.504Z,24.20
2018-05-12T15:22:52.929Z,24.10
2018-05-12T15:25:20.230Z,24.10
2018-05-12T15:27:46.421Z,24.10
2018-05-12T15:30:12.649Z,24.10
2018-05-12T15:32:38.932Z,24.20
2018-05-12T15:35:05.156Z,24.20
2018-05-12T15:37:31.400Z,24.20
2018-05-12T15:39:58.353Z,24.20
2018-05-12T15:42:25.382Z,24.30
2018-05-12T15:44:51.600Z,24.20
2018-05-12T15:47:17.825Z,24.30
2018-05-12T15:49:44.014Z,24.30
2018-05-12T15:52:10.293Z,24.40
2018-05-12T15:54:36.566Z,24.40
2018-05-12T15:57:02.808Z,24.40
2018-05-12T15:59:29.027Z,24.40
2018-05-12T16:01:55.251Z,24.40
2018-05-12T16:04:21.486Z,24.40
2018-05-12T16:06:47.735Z,24.40
2018-05-12T16:09:13.963Z,24.30
2018-05-12T16:11:40.184Z,24.30
2018-05-12T16:14:06.404Z,24.30
2018-05-12T16:16:32.664Z,24.30
2018-05-12T16:18:58.876Z,24.30
2018-05-12T16:21:25.118Z,24.20
2018-05-12T16:23:51.392Z,24.20
2018-05-12T16:26:17.671Z,24.30
2018-05-12T16:28:43.879Z,24.30
2018-05-12T16:31:10.192Z,24.30
2018-05-12T16:33:36.354Z,24.30
2018-05-12T16:36:02.623Z,24.30
2018-05-12T16:38:29.005Z,24.20
2018-05-12T16:40:55.281Z,24.20
2018-05-12T16:43:22.307Z,24.10
2018-05-12T16:45:48.511Z,24.10
2018-05-12T16:48:14.721Z,24.10
2018-05-12T16:50:41.015Z,24.10
2018-05-12T16:53:07.951Z,24.00
2018-05-12T16:55:34.944Z,24.00
2018-05-12T16:58:01.193Z,24.00
2018-05-12T17:00:27.396Z,24.00
2018-05-12T17:02:53.643Z,24.10
2018-05-12T17:05:19.895Z,24.00
2018-05-12T17:07:46.128Z,24.00
2018-05-12T17:10:12.345Z,23.90
2018-05-12T17:12:38.565Z,23.80
2018-05-12T17:15:04.813Z,23.70
2018-05-12T17:17:31.016Z,23.60
2018-05-12T17:19:57.272Z,23.70
2018-05-12T17:22:24.208Z,23.70
2018-05-12T17:24:51.197Z,23.70
2018-05-12T17:27:17.439Z,23.70
2018-05-12T17:29:43.677Z,23.70
2018-05-12T17:32:09.938Z,23.70
2018-05-12T17:34:36.144Z,23.80
2018-05-12T17:37:02.420Z,23.80
2018-05-12T17:39:29.486Z,23.80
2018-05-12T17:41:55.682Z,23.70
2018-05-12T17:44:22.682Z,23.70
2018-05-12T17:46:48.952Z,23.80
2018-05-12T17:49:15.186Z,23.70
2018-05-12T17:51:42.204Z,23.70
2018-05-12T17:54:08.468Z,23.70
2018-05-12T17:56:35.458Z,23.70
2018-05-12T17:59:01.690Z,23.60
2018-05-12T18:01:27.939Z,23.60
2018-05-12T18:03:54.335Z,23.50
2018-05-12T18:06:20.458Z,23.30
2018-05-12T18:08:46.678Z,23.10
2018-05-12T18:11:12.899Z,23.10
2018-05-12T18:13:39.162Z,23.20
2018-05-12T18:16:05.452Z,23.10
2018-05-12T18:18:31.695Z,23.10
2018-05-12T18:20:57.933Z,23.10
2018-05-12T18:23:24.148Z,23.00
2018-05-12T18:25:50.369Z,23.00
2018-05-12T18:28:16.608Z,22.90
2018-05-12T18:30:42.885Z,22.90
2018-05-12T18:33:09.883Z,22.80
2018-05-12T18:35:36.091Z,22.80
2018-05-12T18:38:02.320Z,22.80
2018-05-12T18:40:29.243Z,22.60
2018-05-12T18:42:55.529Z,22.60
2018-05-12T18:45:21.781Z,22.60
2018-05-12T18:47:47.970Z,22.60
2018-05-12T18:50:14.204Z,22.50
2018-05-12T18:52:40.475Z,22.50
2018-05-12T18:55:07.449Z,22.40
2018-05-12T18:57:34.718Z,22.40
2018-05-12T19:00:00.959Z,22.40
2018-05-12T19:02:27.190Z,22.40
2018-05-12T19:04:53.387Z,22.10
2018-05-12T19:07:19.696Z,21.60
2018-05-12T19:09:45.937Z,21.20
2018-05-12T19:12:12.177Z,21.00
2018-05-12T19:14:38.413Z,20.90
2018-05-12T19:17:04.651Z,20.70
2018-05-12T19:19:30.867Z,20.60
2018-05-12T19:21:57.132Z,20.70
2018-05-12T19:24:23.324Z,20.80
2018-05-12T19:26:49.547Z,21.10
2018-05-12T19:29:15.820Z,21.20
2018-05-12T19:31:42.055Z,21.20
2018-05-12T19:34:08.297Z,21.10
2018-05-12T19:36:35.378Z,21.00
2018-05-12T19:39:01.616Z,21.00
2018-05-12T19:41:27.836Z,20.90
2018-05-12T19:43:54.102Z,20.90
2018-05-12T19:46:20.302Z,20.80
2018-05-12T19:48:46.550Z,20.80
2018-05-12T19:51:15.922Z,21.00
2018-05-12T19:53:43.669Z,21.20
2018-05-12T19:56:09.991Z,21.10
2018-05-12T19:58:36.980Z,21.10
2018-05-12T20:01:03.269Z,21.00
2018-05-12T20:03:29.558Z,20.90
2018-05-12T20:05:55.851Z,20.90
2018-05-12T20:08:22.136Z,20.90
2018-05-12T20:10:49.157Z,20.90
2018-05-12T20:13:19.318Z,21.00
2018-05-12T20:15:45.945Z,20.80
2018-05-12T20:18:12.509Z,20.60
2018-05-12T20:20:38.814Z,20.50
2018-05-12T20:23:05.022Z,20.30
2018-05-12T20:25:31.244Z,20.30
2018-05-12T20:27:57.487Z,20.30
2018-05-12T20:30:23.668Z,20.20
2018-05-12T20:32:49.958Z,20.10
2018-05-12T20:35:16.519Z,20.10
2018-05-12T20:37:42.785Z,20.20
2018-05-12T20:40:09.115Z,20.30
2018-05-12T20:42:35.366Z,20.40
2018-05-12T20:45:01.600Z,20.50
2018-05-12T20:47:27.794Z,20.60
2018-05-12T20:49:54.038Z,20.60
2018-05-12T20:52:20.246Z,20.60
2018-05-12T20:54:46.500Z,20.60
2018-05-12T20:57:12.757Z,20.50
2018-05-12T20:59:39.002Z,20.30
2018-05-12T21:02:05.948Z,20.20
2018-05-12T21:04:32.916Z,20.30
2018-05-12T21:06:59.161Z,20.30
2018-05-12T21:09:25.429Z,20.40
2018-05-12T21:11:51.704Z,20.60
2018-05-12T21:14:17.989Z,20.60
2018-05-12T21:16:44.229Z,20.60
2018-05-12T21:19:11.250Z,20.60
2018-05-12T21:21:37.464Z,20.60
2018-05-12T21:24:03.801Z,20.60
2018-05-12T21:26:30.063Z,20.60
2018-05-12T21:28:57.166Z,20.50
2018-05-12T21:31:23.388Z,20.50
2018-05-12T21:33:49.628Z,20.50
2018-05-12T21:36:15.911Z,20.50
2018-05-12T21:38:42.171Z,20.50
2018-05-12T21:41:08.400Z,20.50
2018-05-12T21:43:34.639Z,20.40
2018-05-12T21:46:00.908Z,20.40
2018-05-12T21:48:27.107Z,20.40
2018-05-12T21:50:53.367Z,20.30
2018-05-12T21:53:20.344Z,20.20
2018-05-12T21:55:46.568Z,20.10
2018-05-12T21:58:12.772Z,20.20
2018-05-12T22:00:39.062Z,20.20
2018-05-12T22:03:06.059Z,20.10
2018-05-12T22:05:33.029Z,20.10
2018-05-12T22:07:59.367Z,20.00
2018-05-12T22:10:25.551Z,20.00
2018-05-12T22:12:52.524Z,19.90
2018-05-12T22:15:18.758Z,19.90
2018-05-12T22:17:44.979Z,19.90
2018-05-12T22:20:11.241Z,19.90
2018-05-12T22:22:37.512Z,19.80
2018-05-12T22:25:03.751Z,19.80
2018-05-12T22:27:31.432Z,19.80
2018-05-12T22:29:58.176Z,19.70
2018-05-12T22:32:24.425Z,18.90
2018-05-12T22:34:50.658Z,18.20
2018-05-12T22:37:16.916Z,18.30
2018-05-12T22:39:43.876Z,18.60
2018-05-12T22:42:10.858Z,18.70
2018-05-12T22:44:37.084Z,18.70
2018-05-12T22:47:03.331Z,18.80
2018-05-12T22:49:29.514Z,18.80
2018-05-12T22:51:55.736Z,18.90
2018-05-12T22:54:21.998Z,18.90
2018-05-12T22:56:48.222Z,18.90
2018-05-12T22:59:14.464Z,19.00
2018-05-12T23:01:40.667Z,19.00
2018-05-12T23:04:06.891Z,19.00
2018-05-12T23:06:33.869Z,18.80
2018-05-12T23:09:00.084Z,18.80
2018-05-12T23:11:26.341Z,18.70
2018-05-12T23:13:52.590Z,18.60
2018-05-12T23:16:18.806Z,18.60
2018-05-12T23:18:45.777Z,18.70
2018-05-12T23:21:12.703Z,18.70
2018-05-12T23:23:38.956Z,18.70
2018-05-12T23:26:05.159Z,18.70
2018-05-12T23:28:32.107Z,18.60
2018-05-12T23:30:58.323Z,18.60
2018-05-12T23:33:24.589Z,18.70
2018-05-12T23:35:50.915Z,18.80
2018-05-12T23:38:17.168Z,18.80
2018-05-12T23:40:43.417Z,18.70
2018-05-12T23:43:09.618Z,18.70
2018-05-12T23:45:35.850Z,18.70
2018-05-12T23:48:02.112Z,18.60
2018-05-12T23:50:28.348Z,18.70
2018-05-12T23:52:54.536Z,18.60
2018-05-12T23:55:20.761Z,18.30
2018-05-12T23:57:46.984Z,18.10
